Portada
METAR-TAF:

METAR-TAF

Aeroports :

Manado, Indonèsia

latitud: 01-32N, longitud: 124-55E, altitud: 80 m

Observació

L'informe es va fer fa 19 minuts, a les 23:30 UTC
Vent 2 kt amb direcció variable
Temperatura 25°C
Humitat 100%
Pressió 1011 hPa
Visibilitat 10 km o més
Núvols disperses a una alçada de 2100 ft

METAR: WAMM 262330Z VRB02KT 9999 SCT021 25/25 Q1011 NOSIG

Hora: 06:49 (23:49 UTC)

Pronòstic

L'informe es va fer fa 49 minuts, a les 23:00 UTC
Pronòstic vàlid del 27 a les 00 UTC al 28 a les 06 UTC
Vent 10 kt del Nord/Nord-Oest
Visibilitat 10 km o més
Núvols disperses a una alçada de 2100 ft
Probabilitat 40% :
Temporalment
l' 27 a les 04 UTC al 27 a les 08 UTC
Visibilitat: 5000 m
Escasses núvols a una alçada de 1800 ft, Cumulonimbus.
pluja
Evolucionant progressivament
l' 27 a les 10 UTC al 27 a les 12 UTC
Vent 3 kt del Nord-Est

TAF: WAMM 262300Z 2700/2806 34010KT 9999 SCT021 PROB40 TEMPO 2704/2708 5000 RA FEW018CB BECMG 2710/2712 05003KT

Observacions i pronòstics meteorològics de més de 4000 aeroports (METAR i TAF).

Les estacions disponibles són els punts grocs i vermells al mapa.

Posi el ratolí al punt desitjat per veure el nom de l'estació.

Feu clic per veure les observacions i els pronòstics meteorològics.

Per canviar el mapa: feu clic els botons verds amb una creu de color negre per apropar; al botó verd amb un guió per allunyar la imatge; o en les fletxes verdes per a mapes adjacents.


METAR-TAF: